Íslenskir flugvellir

Veldu flugvelli í þeirri röð sem þeir eiga að birtast og styddu á hnappinn

Uppfært síðast 28.07.2021 - kl. 19:42

SIGMET síðustu 6 klst.

Engin SIGMET skeyti bárust síðustu 6 klst.

Keflavík

METAR síðustu 3 klst

TímiSkeyti
2021-07-28 19.30METAR BIKF 281930Z 01015KT CAVOK 14/10 Q1011
2021-07-28 19.00METAR BIKF 281900Z 01014KT CAVOK 14/10 Q1011
2021-07-28 18.30METAR BIKF 281830Z 02014KT CAVOK 15/11 Q1011
2021-07-28 18.00METAR BIKF 281800Z 01013KT CAVOK 15/11 Q1011
2021-07-28 17.30METAR BIKF 281730Z 02013KT CAVOK 15/10 Q1011
2021-07-28 17.00METAR BIKF 281700Z 01013KT CAVOK 15/10 Q1011

TAF

TAFBIKF2021-07-28 16.32Z28181801018KT 9999 FEW025 TX16/2915Z TN10/2903Z BECMG 2905/2907 36008KT

Allur vindur er réttvísandi bæði í Metar og frá sjálfvirkum veðurstöðvum




Aðrir tengdir vefir



Þetta vefsvæði byggir á Eplica